Tamaha, Oklahoma
Current Conditions -  °F | °C
As of 8:15 AM on Wednesday 22 Oct 2014 (Local Time) from KGZL Reporting Station
Scattered Clouds Scattered Clouds  
Wind Chill: 57°   Ceiling: Unl
Heat Index: 57°   Visibility: 10mi
Dew Point: 55°   Wind: 7mph
Humidity: 94%   Direction: 100°E
Pressure: 30.19"   Gusts: NA
Location:  35.2928°N, 95.0844°W
Report Text: KGZL 221315Z AUTO 10006KT 10SM SCT060 14/13 A3019 RMK AO2
Loading
Personal Weather Stations






























Interactive Weather Map
Tropical Storm Tracking
New forecast layout! Learn more

10-Day Weather Forecast

Advertisements
Track Severe Weather on mobile